Aviation Digital Data Service (ADDS)

Output produced by METARs form (0153 UTC 26 September 2016)
found at http://aviationweather.gov/adds/metars/
 
KCON 252320Z 2600/2624 35006KT P6SM SKC 
     FM260100 VRB03KT P6SM SKC 
     FM261700 20007KT P6SM SKC